Memramcook, Canada
Current Conditions -  °F | °C
As of 8:15 AM on Thursday 23 Oct 2014 (Local Time) from CYQM Reporting Station
Overcast Overcast  
Wind Chill: 50°   Ceiling: 2300
Heat Index: 50°   Visibility: 12mi
Dew Point: 46°   Wind: 15mph
Humidity: 87%   Direction: 50°NE
Pressure: 30.16"   Gusts: 21mph
Location:  46.01°N, 64.54°W
Report Text: CYQM 231115Z 05013G18KT 12SM SCT007 OVC023 10/08 A3016 RMK SF3SC5 SLP214
Loading
Personal Weather Stations






























Interactive Weather Map
Tropical Storm Tracking
New forecast layout! Learn more

10-Day Weather Forecast

Advertisements
Track Severe Weather on mobile